createdAt,value
2018-01-27T00:01:59.521Z,28.83
2018-01-27T00:04:27.011Z,28.37
2018-01-27T00:06:54.479Z,24.90
2018-01-27T00:09:21.946Z,27.43
2018-01-27T00:11:49.398Z,27.73
2018-01-27T00:14:16.878Z,28.00
2018-01-27T00:16:44.373Z,27.90
2018-01-27T00:19:11.837Z,31.30
2018-01-27T00:21:40.070Z,30.07
2018-01-27T00:24:07.530Z,30.80
2018-01-27T00:26:35.025Z,30.23
2018-01-27T00:29:02.491Z,28.87
2018-01-27T00:31:30.747Z,27.77
2018-01-27T00:33:58.230Z,29.90
2018-01-27T00:36:26.496Z,31.63
2018-01-27T00:38:53.950Z,30.97
2018-01-27T00:41:21.420Z,30.10
2018-01-27T00:43:49.665Z,30.67
2018-01-27T00:46:17.158Z,28.67
2018-01-27T00:48:45.395Z,31.10
2018-01-27T00:51:12.866Z,31.20
2018-01-27T00:53:40.343Z,31.97
2018-01-27T00:56:07.814Z,30.93
2018-01-27T00:58:36.078Z,32.47
2018-01-27T01:01:03.538Z,28.87
2018-01-27T01:03:31.007Z,29.87
2018-01-27T01:05:59.267Z,27.40
2018-01-27T01:08:26.740Z,28.63
2018-01-27T01:10:55.027Z,29.40
2018-01-27T01:13:23.267Z,31.00
2018-01-27T01:15:50.736Z,28.63
2018-01-27T01:18:18.201Z,30.80
2018-01-27T01:20:46.446Z,29.63
2018-01-27T01:23:14.678Z,31.00
2018-01-27T01:25:42.188Z,30.60
2018-01-27T01:28:09.681Z,29.67
2018-01-27T01:30:37.942Z,31.70
2018-01-27T01:33:05.431Z,32.77
2018-01-27T01:35:32.916Z,34.53
2018-01-27T01:38:00.385Z,35.63
2018-01-27T01:40:27.846Z,33.77
2018-01-27T01:43:00.997Z,33.10
2018-01-27T01:45:29.271Z,38.33
2018-01-27T01:47:56.782Z,38.87
2018-01-27T01:50:24.251Z,37.23
2018-01-27T01:52:51.725Z,39.23
2018-01-27T01:55:19.194Z,37.67
2018-01-27T01:57:46.667Z,38.17
2018-01-27T02:00:14.145Z,38.90
2018-01-27T02:02:41.629Z,39.37
2018-01-27T02:05:09.117Z,39.60
2018-01-27T02:07:36.566Z,40.80
2018-01-27T02:10:04.030Z,38.30
2018-01-27T02:12:31.501Z,40.10
2018-01-27T02:14:59.732Z,42.47
2018-01-27T02:17:27.241Z,38.80
2018-01-27T02:19:54.726Z,42.80
2018-01-27T02:22:22.222Z,40.83
2018-01-27T02:24:49.692Z,43.23
2018-01-27T02:27:17.163Z,43.23
2018-01-27T02:29:44.653Z,43.40
2018-01-27T02:32:12.145Z,44.90
2018-01-27T02:34:39.630Z,38.87
2018-01-27T02:37:07.096Z,41.17
2018-01-27T02:39:34.588Z,46.17
2018-01-27T02:42:02.130Z,45.33
2018-01-27T02:44:30.365Z,45.83
2018-01-27T02:46:57.845Z,46.00
2018-01-27T02:49:25.323Z,48.23
2018-01-27T02:51:53.569Z,47.33
2018-01-27T02:54:21.056Z,50.60
2018-01-27T02:56:49.313Z,51.77
2018-01-27T02:59:16.795Z,45.57
2018-01-27T03:01:45.048Z,54.03
2018-01-27T03:04:12.533Z,50.93
2018-01-27T03:06:40.799Z,51.70
2018-01-27T03:09:09.027Z,46.50
2018-01-27T03:11:36.513Z,52.07
2018-01-27T03:14:03.976Z,49.53
2018-01-27T03:16:31.471Z,51.27
2018-01-27T03:18:58.937Z,54.33
2018-01-27T03:21:26.430Z,55.20
2018-01-27T03:23:53.898Z,54.97
2018-01-27T03:26:21.415Z,49.57
2018-01-27T03:28:48.904Z,55.17
2018-01-27T03:31:16.388Z,55.63
2018-01-27T03:33:43.871Z,51.20
2018-01-27T03:36:12.102Z,57.53
2018-01-27T03:38:39.589Z,49.70
2018-01-27T03:41:07.839Z,52.23
2018-01-27T03:43:35.312Z,51.57
2018-01-27T03:46:02.876Z,51.50
2018-01-27T03:48:30.368Z,52.87
2018-01-27T03:50:57.853Z,49.13
2018-01-27T03:53:25.315Z,52.27
2018-01-27T03:55:52.786Z,53.30
2018-01-27T03:58:20.261Z,58.63
2018-01-27T04:00:47.746Z,57.03
2018-01-27T04:03:15.978Z,52.40
2018-01-27T04:05:43.466Z,59.47
2018-01-27T04:08:10.990Z,58.63
2018-01-27T04:10:38.474Z,56.30
2018-01-27T04:13:05.940Z,60.67
2018-01-27T04:15:33.412Z,65.60
2018-01-27T04:18:01.652Z,64.10
2018-01-27T04:20:29.123Z,64.47
2018-01-27T04:22:56.586Z,67.60
2018-01-27T04:25:24.060Z,67.53
2018-01-27T04:27:52.311Z,65.93
2018-01-27T04:30:20.609Z,63.07
2018-01-27T04:32:48.084Z,57.33
2018-01-27T04:35:16.306Z,64.10
2018-01-27T04:37:44.185Z,58.13
2018-01-27T04:40:11.664Z,59.27
2018-01-27T04:42:39.141Z,56.17
2018-01-27T04:45:07.397Z,54.40
2018-01-27T04:47:34.874Z,55.27
2018-01-27T04:50:02.379Z,55.67
2018-01-27T04:52:29.909Z,59.23
2018-01-27T04:54:57.376Z,59.67
2018-01-27T04:57:24.911Z,59.80
2018-01-27T04:59:53.179Z,63.30
2018-01-27T05:02:20.651Z,61.47
2018-01-27T05:04:48.898Z,63.17
2018-01-27T05:07:16.377Z,61.80
2018-01-27T05:09:44.617Z,60.67
2018-01-27T05:12:12.110Z,64.17
2018-01-27T05:14:39.610Z,60.63
2018-01-27T05:17:07.104Z,60.73
2018-01-27T05:19:34.574Z,57.30
2018-01-27T05:22:02.038Z,60.10
2018-01-27T05:24:29.501Z,59.83
2018-01-27T05:26:57.909Z,62.00
2018-01-27T05:29:25.375Z,61.13
2018-01-27T05:31:52.841Z,57.60
2018-01-27T05:34:20.306Z,57.70
2018-01-27T05:36:47.858Z,58.30
2018-01-27T05:39:15.357Z,61.70
2018-01-27T05:41:42.871Z,57.30
2018-01-27T05:44:10.360Z,55.30
2018-01-27T05:46:37.829Z,58.80
2018-01-27T05:49:05.294Z,57.63
2018-01-27T05:51:32.792Z,63.90
2018-01-27T05:54:01.099Z,59.03
2018-01-27T05:56:29.311Z,65.73
2018-01-27T05:58:56.822Z,69.03
2018-01-27T06:01:24.313Z,73.77
2018-01-27T06:03:51.788Z,73.00
2018-01-27T06:06:19.254Z,68.47
2018-01-27T06:08:46.730Z,69.87
2018-01-27T06:11:14.966Z,68.03
2018-01-27T06:13:42.426Z,68.87
2018-01-27T06:16:09.904Z,73.47
2018-01-27T06:18:37.404Z,80.23
2018-01-27T06:21:04.884Z,75.10
2018-01-27T06:23:32.375Z,64.33
2018-01-27T06:25:59.861Z,61.83
2018-01-27T06:28:28.102Z,57.50
2018-01-27T06:30:55.569Z,59.07
2018-01-27T06:33:23.047Z,57.50
2018-01-27T06:35:51.270Z,53.50
2018-01-27T06:38:19.514Z,49.30
2018-01-27T06:40:46.995Z,49.27
2018-01-27T06:43:14.458Z,47.57
2018-01-27T06:45:41.921Z,48.70
2018-01-27T06:48:09.405Z,50.60
2018-01-27T06:50:36.903Z,47.23
2018-01-27T06:53:05.133Z,47.83
2018-01-27T06:55:32.605Z,47.87
2018-01-27T06:58:00.093Z,41.87
2018-01-27T07:00:28.321Z,47.60
2018-01-27T07:02:55.823Z,45.13
2018-01-27T07:05:24.074Z,47.53
2018-01-27T07:07:52.239Z,47.57
2018-01-27T07:10:19.718Z,47.20
2018-01-27T07:12:47.168Z,45.40
2018-01-27T07:15:14.650Z,48.23
2018-01-27T07:17:43.302Z,47.33
2018-01-27T07:20:10.865Z,42.40
2018-01-27T07:22:38.330Z,42.17
2018-01-27T07:25:05.880Z,40.37
2018-01-27T07:27:33.399Z,42.87
2018-01-27T07:30:00.909Z,41.00
2018-01-27T07:32:28.370Z,41.40
2018-01-27T07:34:55.826Z,38.27
2018-01-27T07:37:23.540Z,39.40
2018-01-27T07:39:51.028Z,39.30
2018-01-27T07:42:18.484Z,38.87
2018-01-27T07:44:46.786Z,38.70
2018-01-27T07:47:14.284Z,39.30
2018-01-27T07:49:41.753Z,38.27
2018-01-27T07:52:09.222Z,40.40
2018-01-27T07:54:36.714Z,37.73
2018-01-27T07:57:04.202Z,37.33
2018-01-27T07:59:32.439Z,40.33
2018-01-27T08:01:59.915Z,39.13
2018-01-27T08:04:27.370Z,33.80
2018-01-27T08:06:54.886Z,30.57
2018-01-27T08:09:22.363Z,30.47
2018-01-27T08:11:49.851Z,33.43
2018-01-27T08:14:17.359Z,34.77
2018-01-27T08:16:44.868Z,35.20
2018-01-27T08:19:12.356Z,32.30
2018-01-27T08:21:40.579Z,37.33
2018-01-27T08:24:08.156Z,32.80
2018-01-27T08:26:35.685Z,30.67
2018-01-27T08:29:03.179Z,30.33
2018-01-27T08:31:30.656Z,31.27
2018-01-27T08:33:58.932Z,29.77
2018-01-27T08:36:26.594Z,29.90
2018-01-27T08:38:54.109Z,30.17
2018-01-27T08:41:21.574Z,29.77
2018-01-27T08:43:49.102Z,30.10
2018-01-27T08:46:16.595Z,30.47
2018-01-27T08:48:44.116Z,28.87
2018-01-27T08:51:11.609Z,28.07
2018-01-27T08:53:39.093Z,28.20
2018-01-27T08:56:06.676Z,27.03
2018-01-27T08:58:35.115Z,25.17
2018-01-27T09:01:02.623Z,27.10
2018-01-27T09:03:30.850Z,25.03
2018-01-27T09:05:58.377Z,25.20
2018-01-27T09:08:25.835Z,22.80
2018-01-27T09:10:53.354Z,23.33
2018-01-27T09:13:20.849Z,24.20
2018-01-27T09:15:48.345Z,23.90
2018-01-27T09:18:15.950Z,20.53
2018-01-27T09:20:43.468Z,21.73
2018-01-27T09:23:10.945Z,20.23
2018-01-27T09:25:38.410Z,20.83
2018-01-27T09:28:05.937Z,19.57
2018-01-27T09:30:33.396Z,19.10
2018-01-27T09:33:00.899Z,20.33
2018-01-27T09:35:29.207Z,19.30
2018-01-27T09:37:56.764Z,19.67
2018-01-27T09:40:24.261Z,20.30
2018-01-27T09:42:51.758Z,19.60
2018-01-27T09:45:19.247Z,18.80
2018-01-27T09:47:47.308Z,18.13
2018-01-27T09:50:14.801Z,19.33
2018-01-27T09:52:42.306Z,17.47
2018-01-27T09:55:10.630Z,20.20
2018-01-27T09:57:38.135Z,19.93
2018-01-27T10:00:06.402Z,20.83
2018-01-27T10:02:33.895Z,19.37
2018-01-27T10:05:01.455Z,17.70
2018-01-27T10:07:29.680Z,19.67
2018-01-27T10:09:57.186Z,19.80
2018-01-27T10:12:24.661Z,18.60
2018-01-27T10:14:52.143Z,19.00
2018-01-27T10:17:19.633Z,17.60
2018-01-27T10:19:47.122Z,19.23
2018-01-27T10:22:15.363Z,18.20
2018-01-27T10:24:42.873Z,20.00
2018-01-27T10:27:10.379Z,18.63
2018-01-27T10:29:37.855Z,18.90
2018-01-27T10:32:05.472Z,18.33
2018-01-27T10:34:32.938Z,17.47
2018-01-27T10:37:00.424Z,17.07
2018-01-27T10:39:27.910Z,16.67
2018-01-27T10:41:55.408Z,15.87
2018-01-27T10:44:22.921Z,15.93
2018-01-27T10:46:51.169Z,16.17
2018-01-27T10:49:18.713Z,15.67
2018-01-27T10:51:46.172Z,15.50
2018-01-27T10:54:13.662Z,16.00
2018-01-27T10:56:43.038Z,13.13
2018-01-27T10:59:10.623Z,14.87
2018-01-27T11:01:38.089Z,12.87
2018-01-27T11:04:05.589Z,16.00
2018-01-27T11:06:33.059Z,14.20
2018-01-27T11:09:00.544Z,15.27
2018-01-27T11:11:28.029Z,14.23
2018-01-27T11:13:56.250Z,15.77
2018-01-27T11:16:24.124Z,15.63
2018-01-27T11:18:52.988Z,12.60
2018-01-27T11:21:20.500Z,14.07
2018-01-27T11:23:47.998Z,13.77
2018-01-27T11:26:15.658Z,13.80
2018-01-27T11:28:43.291Z,13.47
2018-01-27T11:31:10.768Z,15.50
2018-01-27T11:33:38.995Z,12.83
2018-01-27T11:36:07.170Z,11.63
2018-01-27T11:38:35.531Z,12.70
2018-01-27T11:41:03.873Z,12.73
2018-01-27T11:43:32.122Z,13.00
2018-01-27T11:45:59.601Z,13.30
2018-01-27T11:48:27.217Z,13.27
2018-01-27T11:50:54.666Z,12.93
2018-01-27T11:53:22.171Z,13.23
2018-01-27T11:55:49.665Z,10.57
2018-01-27T11:58:17.965Z,10.33
2018-01-27T12:00:45.447Z,10.73
2018-01-27T12:03:12.919Z,10.37
2018-01-27T12:05:40.406Z,10.50
2018-01-27T12:08:08.702Z,8.77
2018-01-27T12:10:36.299Z,8.77
2018-01-27T12:13:03.801Z,8.90
2018-01-27T12:15:32.065Z,8.27
2018-01-27T12:17:59.616Z,7.83
2018-01-27T12:20:27.114Z,8.70
2018-01-27T12:22:54.586Z,8.13
2018-01-27T12:25:22.083Z,9.23
2018-01-27T12:27:49.553Z,9.07
2018-01-27T12:30:17.023Z,8.63
2018-01-27T12:32:46.251Z,8.77
2018-01-27T12:35:13.744Z,7.13
2018-01-27T12:37:41.679Z,8.33
2018-01-27T12:40:09.187Z,8.20
2018-01-27T12:42:36.694Z,9.60
2018-01-27T12:45:04.193Z,10.07
2018-01-27T12:47:31.690Z,10.53
2018-01-27T12:49:59.935Z,11.70
2018-01-27T12:52:27.409Z,11.97
2018-01-27T12:54:54.909Z,11.03
2018-01-27T12:57:22.454Z,11.47
2018-01-27T12:59:50.702Z,11.20
2018-01-27T13:02:18.201Z,11.53
2018-01-27T13:04:45.681Z,12.80
2018-01-27T13:07:13.138Z,10.90
2018-01-27T13:09:40.639Z,11.80
2018-01-27T13:12:08.131Z,11.30
2018-01-27T13:14:35.632Z,11.53
2018-01-27T13:17:03.210Z,12.30
2018-01-27T13:19:30.682Z,11.80
2018-01-27T13:21:58.950Z,11.40
2018-01-27T13:24:26.449Z,12.03
2018-01-27T13:26:53.949Z,10.20
2018-01-27T13:29:21.417Z,11.10
2018-01-27T13:31:48.891Z,10.77
2018-01-27T13:34:16.467Z,10.63
2018-01-27T13:36:44.747Z,9.40
2018-01-27T13:39:12.248Z,9.50
2018-01-27T13:41:40.251Z,9.53
2018-01-27T13:44:07.748Z,9.43
2018-01-27T13:46:35.270Z,8.63
2018-01-27T13:49:02.747Z,9.70
2018-01-27T13:51:30.984Z,8.77
2018-01-27T13:53:59.222Z,8.53
2018-01-27T13:56:26.695Z,7.97
2018-01-27T13:58:54.166Z,9.00
2018-01-27T14:01:21.673Z,8.30
2018-01-27T14:03:49.148Z,7.90
2018-01-27T14:06:17.397Z,6.90
2018-01-27T14:08:44.882Z,6.73
2018-01-27T14:11:12.388Z,6.63
2018-01-27T14:13:40.050Z,7.80
2018-01-27T14:16:07.511Z,8.33
2018-01-27T14:18:35.081Z,6.17
2018-01-27T14:21:02.580Z,7.17
2018-01-27T14:23:30.826Z,6.60
2018-01-27T14:25:58.360Z,6.67
2018-01-27T14:28:25.824Z,6.83
2018-01-27T14:30:53.313Z,7.30
2018-01-27T14:33:20.824Z,6.50
2018-01-27T14:35:48.299Z,6.53
2018-01-27T14:38:15.782Z,7.00
2018-01-27T14:40:43.326Z,7.10
2018-01-27T14:43:10.782Z,6.97
2018-01-27T14:45:38.273Z,7.67
2018-01-27T14:48:05.744Z,7.20
2018-01-27T14:50:33.979Z,8.47
2018-01-27T14:53:01.506Z,8.43
2018-01-27T14:55:29.718Z,7.23
2018-01-27T14:57:57.276Z,7.40
2018-01-27T15:00:24.875Z,8.33
2018-01-27T15:02:53.102Z,6.33
2018-01-27T15:05:20.739Z,7.60
2018-01-27T15:07:48.215Z,6.87
2018-01-27T15:10:15.678Z,6.50
2018-01-27T15:12:44.006Z,6.57
2018-01-27T15:15:12.251Z,7.40
2018-01-27T15:17:40.134Z,6.33
2018-01-27T15:20:08.481Z,7.37
2018-01-27T15:22:35.992Z,6.07
2018-01-27T15:25:04.437Z,6.53
2018-01-27T15:27:31.982Z,6.37
2018-01-27T15:29:59.462Z,7.07
2018-01-27T15:32:26.973Z,7.57
2018-01-27T15:34:54.490Z,6.60
2018-01-27T15:37:22.182Z,8.37
2018-01-27T15:39:50.460Z,6.27
2018-01-27T15:42:18.739Z,7.10
2018-01-27T15:44:46.240Z,7.20
2018-01-27T15:47:13.729Z,8.00
2018-01-27T15:49:41.358Z,9.23
2018-01-27T15:52:08.839Z,7.93
2018-01-27T15:54:36.315Z,6.27
2018-01-27T15:57:03.796Z,7.57
2018-01-27T15:59:31.361Z,7.67
2018-01-27T16:01:58.870Z,7.50
2018-01-27T16:04:26.374Z,8.10
2018-01-27T16:06:54.014Z,8.27
2018-01-27T16:09:21.535Z,7.50
2018-01-27T16:11:49.068Z,7.10
2018-01-27T16:14:16.511Z,7.87
2018-01-27T16:16:44.108Z,7.77
2018-01-27T16:19:11.586Z,7.77
2018-01-27T16:21:39.043Z,8.30
2018-01-27T16:24:06.504Z,9.23
2018-01-27T16:26:34.027Z,9.33
2018-01-27T16:29:01.677Z,8.50
2018-01-27T16:31:29.150Z,8.83
2018-01-27T16:33:56.612Z,8.67
2018-01-27T16:36:24.191Z,9.50
2018-01-27T16:38:51.671Z,10.00
2018-01-27T16:41:19.146Z,8.53
2018-01-27T16:43:47.396Z,10.17
2018-01-27T16:46:14.861Z,9.87
2018-01-27T16:48:42.338Z,8.63
2018-01-27T16:51:09.783Z,8.47
2018-01-27T16:53:37.276Z,8.60
2018-01-27T16:56:04.830Z,8.73
2018-01-27T16:58:33.066Z,6.83
2018-01-27T17:01:00.515Z,8.30
2018-01-27T17:03:28.099Z,7.93
2018-01-27T17:05:56.317Z,6.03
2018-01-27T17:08:23.806Z,6.80
2018-01-27T17:10:51.263Z,6.27
2018-01-27T17:13:18.727Z,6.83
2018-01-27T17:15:46.207Z,6.40
2018-01-27T17:18:13.707Z,6.77
2018-01-27T17:20:41.980Z,6.37
2018-01-27T17:23:09.453Z,7.57
2018-01-27T17:25:36.940Z,7.10
2018-01-27T17:28:04.406Z,6.33
2018-01-27T17:30:32.034Z,6.10
2018-01-27T17:32:59.521Z,6.33
2018-01-27T17:35:26.990Z,5.60
2018-01-27T17:37:54.689Z,6.57
2018-01-27T17:40:22.166Z,5.07
2018-01-27T17:42:49.624Z,7.67
2018-01-27T17:45:17.072Z,5.73
2018-01-27T17:47:44.569Z,5.70
2018-01-27T17:50:12.025Z,6.20
2018-01-27T17:52:39.587Z,5.50
2018-01-27T17:55:07.090Z,6.13
2018-01-27T17:57:35.330Z,5.90
2018-01-27T18:00:02.805Z,6.97
2018-01-27T18:02:30.281Z,6.20
2018-01-27T18:04:58.544Z,7.10
2018-01-27T18:07:26.007Z,5.27
2018-01-27T18:09:53.474Z,6.20
2018-01-27T18:12:21.352Z,5.77
2018-01-27T18:14:48.795Z,5.60
2018-01-27T18:17:16.299Z,6.17
2018-01-27T18:19:43.821Z,6.20
2018-01-27T18:22:11.541Z,7.30
2018-01-27T18:24:40.812Z,6.63
2018-01-27T18:27:08.286Z,6.50
2018-01-27T18:29:35.757Z,6.60
2018-01-27T18:32:03.221Z,5.93
2018-01-27T18:34:30.709Z,7.60
2018-01-27T18:36:58.457Z,6.50
2018-01-27T18:39:26.103Z,6.53
2018-01-27T18:41:53.692Z,8.10
2018-01-27T18:44:21.186Z,6.10
2018-01-27T18:46:48.659Z,5.40
2018-01-27T18:49:16.155Z,6.17
2018-01-27T18:51:43.620Z,5.87
2018-01-27T18:54:11.085Z,6.40
2018-01-27T18:56:38.682Z,6.03
2018-01-27T18:59:06.211Z,6.93
2018-01-27T19:01:35.570Z,5.40
2018-01-27T19:04:03.224Z,6.20
2018-01-27T19:06:30.687Z,7.37
2018-01-27T19:08:58.155Z,5.87
2018-01-27T19:11:25.678Z,6.90
2018-01-27T19:13:54.894Z,6.47
2018-01-27T19:16:22.407Z,6.80
2018-01-27T19:18:49.903Z,5.93
2018-01-27T19:21:17.391Z,6.40
2018-01-27T19:23:44.842Z,6.27
2018-01-27T19:26:12.357Z,5.83
2018-01-27T19:28:39.821Z,7.80
2018-01-27T19:31:10.839Z,5.53
2018-01-27T19:33:38.287Z,5.37
2018-01-27T19:36:06.368Z,5.33
2018-01-27T19:38:35.031Z,6.10
2018-01-27T19:41:03.422Z,5.77
2018-01-27T19:43:33.573Z,5.77
2018-01-27T19:46:01.112Z,5.67
2018-01-27T19:48:29.449Z,6.20
2018-01-27T19:50:57.006Z,5.67
2018-01-27T19:53:24.481Z,6.73
2018-01-27T19:55:52.024Z,6.00
2018-01-27T19:58:19.495Z,5.33
2018-01-27T20:00:47.034Z,6.03
2018-01-27T20:03:15.294Z,5.57
2018-01-27T20:05:42.906Z,5.80
2018-01-27T20:08:10.468Z,5.23
2018-01-27T20:10:37.980Z,5.37
2018-01-27T20:13:06.270Z,8.33
2018-01-27T20:15:33.774Z,6.00
2018-01-27T20:18:01.302Z,5.50
2018-01-27T20:20:29.843Z,5.00
2018-01-27T20:22:57.318Z,5.40
2018-01-27T20:25:24.874Z,5.27
2018-01-27T20:27:53.173Z,5.67
2018-01-27T20:30:20.664Z,5.67
2018-01-27T20:32:48.120Z,4.30
2018-01-27T20:35:15.623Z,5.37
2018-01-27T20:37:43.968Z,5.43
2018-01-27T20:40:11.430Z,4.57
2018-01-27T20:42:39.062Z,4.83
2018-01-27T20:45:06.536Z,4.17
2018-01-27T20:47:34.026Z,4.43
2018-01-27T20:50:01.479Z,3.63
2018-01-27T20:52:28.966Z,3.90
2018-01-27T20:54:56.448Z,3.40
2018-01-27T20:57:23.928Z,3.83
2018-01-27T20:59:51.608Z,3.90
2018-01-27T21:02:19.146Z,3.87
2018-01-27T21:04:46.625Z,3.60
2018-01-27T21:07:14.677Z,3.53
2018-01-27T21:09:42.182Z,4.40
2018-01-27T21:12:10.427Z,5.13
2018-01-27T21:14:37.876Z,4.00
2018-01-27T21:17:05.364Z,4.60
2018-01-27T21:19:32.853Z,4.10
2018-01-27T21:22:00.338Z,4.20
2018-01-27T21:24:27.826Z,3.77
2018-01-27T21:26:55.309Z,4.10
2018-01-27T21:29:23.547Z,3.67
2018-01-27T21:31:51.005Z,3.70
2018-01-27T21:34:18.692Z,4.00
2018-01-27T21:36:46.948Z,3.63
2018-01-27T21:39:14.431Z,4.50
2018-01-27T21:41:41.938Z,3.77
2018-01-27T21:44:09.493Z,4.57
2018-01-27T21:46:37.002Z,3.30
2018-01-27T21:49:05.245Z,3.47
2018-01-27T21:51:32.911Z,3.50
2018-01-27T21:54:00.465Z,3.67
2018-01-27T21:56:27.948Z,3.50
2018-01-27T21:58:55.620Z,3.03
2018-01-27T22:01:23.152Z,2.60
2018-01-27T22:03:50.634Z,4.10
2018-01-27T22:06:18.082Z,3.53
2018-01-27T22:08:45.685Z,3.30
2018-01-27T22:11:13.160Z,3.53
2018-01-27T22:13:40.649Z,4.30
2018-01-27T22:16:08.115Z,4.20
2018-01-27T22:18:35.582Z,3.97
2018-01-27T22:21:03.048Z,2.90
2018-01-27T22:23:30.525Z,3.53
2018-01-27T22:25:58.765Z,3.27
2018-01-27T22:28:26.232Z,4.07
2018-01-27T22:30:53.712Z,3.70
2018-01-27T22:33:21.173Z,3.20
2018-01-27T22:35:49.421Z,4.10
2018-01-27T22:38:16.897Z,3.63
2018-01-27T22:40:44.361Z,3.67
2018-01-27T22:43:11.816Z,3.30
2018-01-27T22:45:39.296Z,4.63
2018-01-27T22:48:07.574Z,4.40
2018-01-27T22:50:35.813Z,4.73
2018-01-27T22:53:03.262Z,3.70
2018-01-27T22:55:30.745Z,4.90
2018-01-27T22:57:58.201Z,4.40
2018-01-27T23:00:26.537Z,3.60
2018-01-27T23:02:54.038Z,3.53
2018-01-27T23:05:21.510Z,3.20
2018-01-27T23:07:49.766Z,3.70
2018-01-27T23:10:17.223Z,4.67
2018-01-27T23:12:44.694Z,4.60
2018-01-27T23:15:12.158Z,5.13
2018-01-27T23:17:39.619Z,3.80
2018-01-27T23:20:07.862Z,5.80
2018-01-27T23:22:35.341Z,5.37
2018-01-27T23:25:02.798Z,5.33
2018-01-27T23:27:30.269Z,5.03
2018-01-27T23:29:57.733Z,5.00
2018-01-27T23:32:25.970Z,5.20
2018-01-27T23:34:53.434Z,6.07
2018-01-27T23:37:20.891Z,6.03
2018-01-27T23:39:48.362Z,5.13
2018-01-27T23:42:15.824Z,5.07
2018-01-27T23:44:43.321Z,5.47
2018-01-27T23:47:10.774Z,6.37
2018-01-27T23:49:38.249Z,5.10
2018-01-27T23:52:05.705Z,7.13
2018-01-27T23:54:33.177Z,5.70
2018-01-27T23:57:00.642Z,6.60
2018-01-27T23:59:28.110Z,6.37
